sensor_id;sensor_type;location;lat;lon;timestamp;noise_LAeq;noise_LA_min;noise_LA_max;noise_LA01;noise_LA95
45109;Laerm;30447;48.742;8.972;2023-04-12T00:00:07;38.06;33.90;44.62;;
45109;Laerm;30447;48.742;8.972;2023-04-12T00:02:37;37.78;33.90;43.90;;
45109;Laerm;30447;48.742;8.972;2023-04-12T00:05:04;37.67;32.93;40.33;;
45109;Laerm;30447;48.742;8.972;2023-04-12T00:07:31;37.69;33.44;42.76;;
45109;Laerm;30447;48.742;8.972;2023-04-12T00:09:58;37.65;33.90;41.06;;
45109;Laerm;30447;48.742;8.972;2023-04-12T00:12:24;38.01;34.31;40.80;;
45109;Laerm;30447;48.742;8.972;2023-04-12T00:14:51;38.22;35.04;43.44;;
45109;Laerm;30447;48.742;8.972;2023-04-12T00:17:17;38.24;35.04;43.81;;
45109;Laerm;30447;48.742;8.972;2023-04-12T00:19:44;38.60;33.90;45.30;;
45109;Laerm;30447;48.742;8.972;2023-04-12T00:22:11;39.58;35.66;44.94;;
45109;Laerm;30447;48.742;8.972;2023-04-12T00:24:38;40.31;35.66;45.33;;
45109;Laerm;30447;48.742;8.972;2023-04-12T00:27:08;39.64;35.66;45.17;;
45109;Laerm;30447;48.742;8.972;2023-04-12T00:29:34;39.35;35.66;44.19;;
45109;Laerm;30447;48.742;8.972;2023-04-12T00:32:01;39.40;35.94;45.01;;
45109;Laerm;30447;48.742;8.972;2023-04-12T00:34:29;38.92;34.69;44.97;;
45109;Laerm;30447;48.742;8.972;2023-04-12T00:36:56;39.02;35.36;44.35;;
45109;Laerm;30447;48.742;8.972;2023-04-12T00:39:22;39.09;35.04;45.83;;
45109;Laerm;30447;48.742;8.972;2023-04-12T00:41:49;38.84;35.66;44.43;;
45109;Laerm;30447;48.742;8.972;2023-04-12T00:44:15;38.70;35.59;44.35;;
45109;Laerm;30447;48.742;8.972;2023-04-12T00:46:44;38.34;34.31;47.28;;
45109;Laerm;30447;48.742;8.972;2023-04-12T00:49:12;38.07;34.69;43.04;;
45109;Laerm;30447;48.742;8.972;2023-04-12T00:51:39;38.16;33.90;43.94;;
45109;Laerm;30447;48.742;8.972;2023-04-12T00:54:06;38.32;34.69;43.04;;
45109;Laerm;30447;48.742;8.972;2023-04-12T00:56:33;38.39;34.69;44.54;;
45109;Laerm;30447;48.742;8.972;2023-04-12T00:59:00;38.85;35.04;44.35;;
45109;Laerm;30447;48.742;8.972;2023-04-12T01:01:27;38.84;35.66;49.58;;
45109;Laerm;30447;48.742;8.972;2023-04-12T01:03:54;38.68;35.36;43.34;;
45109;Laerm;30447;48.742;8.972;2023-04-12T01:12:40;40.29;35.04;44.73;;
45109;Laerm;30447;48.742;8.972;2023-04-12T01:17:17;38.08;34.31;42.03;;
45109;Laerm;30447;48.742;8.972;2023-04-12T01:20:22;38.47;35.04;42.71;;
45109;Laerm;30447;48.742;8.972;2023-04-12T01:23:06;38.20;34.69;44.31;;
45109;Laerm;30447;48.742;8.972;2023-04-12T01:25:50;38.85;35.66;45.33;;
45109;Laerm;30447;48.742;8.972;2023-04-12T01:28:31;38.98;35.66;44.73;;
45109;Laerm;30447;48.742;8.972;2023-04-12T01:31:01;39.39;35.36;44.65;;
45109;Laerm;30447;48.742;8.972;2023-04-12T01:33:29;38.72;35.36;44.39;;
45109;Laerm;30447;48.742;8.972;2023-04-12T01:36:03;38.64;34.31;43.04;;
45109;Laerm;30447;48.742;8.972;2023-04-12T01:38:32;38.42;34.69;45.23;;
45109;Laerm;30447;48.742;8.972;2023-04-12T01:40:59;37.98;33.90;41.82;;
45109;Laerm;30447;48.742;8.972;2023-04-12T01:43:25;37.94;33.90;40.89;;
45109;Laerm;30447;48.742;8.972;2023-04-12T01:45:52;37.94;33.44;41.14;;
45109;Laerm;30447;48.742;8.972;2023-04-12T01:48:19;38.01;32.93;43.39;;
45109;Laerm;30447;48.742;8.972;2023-04-12T01:56:08;38.07;33.90;42.65;;
45109;Laerm;30447;48.742;8.972;2023-04-12T01:58:36;38.03;33.44;42.41;;
45109;Laerm;30447;48.742;8.972;2023-04-12T02:01:06;38.06;34.31;42.47;;
45109;Laerm;30447;48.742;8.972;2023-04-12T02:03:34;37.75;32.93;45.17;;
45109;Laerm;30447;48.742;8.972;2023-04-12T02:06:04;37.93;33.90;40.71;;
45109;Laerm;30447;48.742;8.972;2023-04-12T02:08:32;38.08;33.44;48.96;;
45109;Laerm;30447;48.742;8.972;2023-04-12T02:10:58;38.15;34.31;40.53;;
45109;Laerm;30447;48.742;8.972;2023-04-12T02:13:25;38.45;34.31;42.53;;
45109;Laerm;30447;48.742;8.972;2023-04-12T02:15:52;38.29;34.31;53.45;;
45109;Laerm;30447;48.742;8.972;2023-04-12T02:18:19;38.69;33.90;45.91;;
45109;Laerm;30447;48.742;8.972;2023-04-12T02:20:46;39.12;35.04;42.71;;
45109;Laerm;30447;48.742;8.972;2023-04-12T02:23:12;38.89;35.36;41.68;;
45109;Laerm;30447;48.742;8.972;2023-04-12T02:25:39;39.28;35.94;43.09;;
45109;Laerm;30447;48.742;8.972;2023-04-12T02:28:06;39.64;36.45;42.16;;
45109;Laerm;30447;48.742;8.972;2023-04-12T02:30:33;39.24;35.94;43.99;;
45109;Laerm;30447;48.742;8.972;2023-04-12T02:32:59;39.28;35.94;43.63;;
45109;Laerm;30447;48.742;8.972;2023-04-12T02:35:29;39.15;35.66;45.42;;
45109;Laerm;30447;48.742;8.972;2023-04-12T02:37:56;38.80;35.36;43.04;;
45109;Laerm;30447;48.742;8.972;2023-04-12T02:40:23;38.80;35.04;45.51;;
45109;Laerm;30447;48.742;8.972;2023-04-12T02:42:49;39.20;35.36;43.72;;
45109;Laerm;30447;48.742;8.972;2023-04-12T02:45:16;39.02;35.04;44.80;;
45109;Laerm;30447;48.742;8.972;2023-04-12T02:47:42;38.52;35.04;44.47;;
45109;Laerm;30447;48.742;8.972;2023-04-12T02:50:09;38.46;33.90;47.30;;
45109;Laerm;30447;48.742;8.972;2023-04-12T02:52:35;39.26;34.69;42.93;;
45109;Laerm;30447;48.742;8.972;2023-04-12T02:55:02;38.87;34.69;44.90;;
45109;Laerm;30447;48.742;8.972;2023-04-12T02:57:28;38.62;34.31;42.71;;
45109;Laerm;30447;48.742;8.972;2023-04-12T02:59:55;38.74;35.36;51.93;;
45109;Laerm;30447;48.742;8.972;2023-04-12T03:02:22;38.79;34.69;41.14;;
45109;Laerm;30447;48.742;8.972;2023-04-12T03:04:48;40.14;34.69;46.62;;
45109;Laerm;30447;48.742;8.972;2023-04-12T03:07:20;39.06;35.04;43.90;;
45109;Laerm;30447;48.742;8.972;2023-04-12T03:09:49;38.96;34.69;46.48;;
45109;Laerm;30447;48.742;8.972;2023-04-12T03:12:15;39.35;35.66;42.71;;
45109;Laerm;30447;48.742;8.972;2023-04-12T03:14:42;39.02;35.36;43.14;;
45109;Laerm;30447;48.742;8.972;2023-04-12T03:17:08;39.58;35.66;44.80;;
45109;Laerm;30447;48.742;8.972;2023-04-12T03:19:35;39.51;35.36;42.76;;
45109;Laerm;30447;48.742;8.972;2023-04-12T03:22:03;40.34;36.91;43.81;;
45109;Laerm;30447;48.742;8.972;2023-04-12T03:24:29;39.92;36.20;42.41;;
45109;Laerm;30447;48.742;8.972;2023-04-12T03:27:03;39.60;35.36;42.47;;
45109;Laerm;30447;48.742;8.972;2023-04-12T03:29:30;39.41;36.20;43.63;;
45109;Laerm;30447;48.742;8.972;2023-04-12T03:31:57;40.00;37.12;42.88;;
45109;Laerm;30447;48.742;8.972;2023-04-12T03:34:25;40.07;37.52;43.90;;
45109;Laerm;30447;48.742;8.972;2023-04-12T03:37:01;40.13;36.45;44.03;;
45109;Laerm;30447;48.742;8.972;2023-04-12T03:39:28;39.63;36.20;48.12;;
45109;Laerm;30447;48.742;8.972;2023-04-12T03:41:54;39.97;36.20;43.72;;
45109;Laerm;30447;48.742;8.972;2023-04-12T03:44:21;40.02;36.91;52.08;;
45109;Laerm;30447;48.742;8.972;2023-04-12T03:46:47;40.19;37.32;46.20;;
45109;Laerm;30447;48.742;8.972;2023-04-12T03:49:14;40.48;38.05;45.57;;
45109;Laerm;30447;48.742;8.972;2023-04-12T03:51:42;40.46;37.12;55.93;;
45109;Laerm;30447;48.742;8.972;2023-04-12T03:54:10;39.84;36.69;44.43;;
45109;Laerm;30447;48.742;8.972;2023-04-12T03:56:40;42.11;37.32;46.89;;
45109;Laerm;30447;48.742;8.972;2023-04-12T03:59:07;41.22;36.91;49.28;;
45109;Laerm;30447;48.742;8.972;2023-04-12T04:01:34;41.17;37.52;50.39;;
45109;Laerm;30447;48.742;8.972;2023-04-12T04:04:02;41.47;37.32;51.99;;
45109;Laerm;30447;48.742;8.972;2023-04-12T04:06:28;42.29;38.05;52.70;;
45109;Laerm;30447;48.742;8.972;2023-04-12T04:08:56;41.96;37.88;52.25;;
45109;Laerm;30447;48.742;8.972;2023-04-12T04:11:23;42.01;38.05;52.30;;
45109;Laerm;30447;48.742;8.972;2023-04-12T04:13:50;42.80;38.81;53.54;;
45109;Laerm;30447;48.742;8.972;2023-04-12T04:16:17;42.73;39.34;52.96;;
45109;Laerm;30447;48.742;8.972;2023-04-12T04:18:43;42.35;38.81;53.76;;
45109;Laerm;30447;48.742;8.972;2023-04-12T04:21:10;41.69;37.70;53.24;;
45109;Laerm;30447;48.742;8.972;2023-04-12T04:23:36;41.57;37.52;55.44;;
45109;Laerm;30447;48.742;8.972;2023-04-12T04:26:10;40.97;37.88;50.81;;
45109;Laerm;30447;48.742;8.972;2023-04-12T04:28:37;43.60;39.08;49.80;;
45109;Laerm;30447;48.742;8.972;2023-04-12T04:31:05;44.28;38.21;57.33;;
45109;Laerm;30447;48.742;8.972;2023-04-12T04:33:32;44.25;38.52;55.66;;
45109;Laerm;30447;48.742;8.972;2023-04-12T04:35:58;43.12;38.05;62.84;;
45109;Laerm;30447;48.742;8.972;2023-04-12T04:38:26;46.12;38.67;62.60;;
45109;Laerm;30447;48.742;8.972;2023-04-12T04:40:53;45.99;39.21;64.01;;
45109;Laerm;30447;48.742;8.972;2023-04-12T04:43:20;41.29;39.08;47.16;;
45109;Laerm;30447;48.742;8.972;2023-04-12T04:45:51;41.50;39.11;50.75;;
45109;Laerm;30447;48.742;8.972;2023-04-12T04:48:19;41.03;38.37;43.68;;
45109;Laerm;30447;48.742;8.972;2023-04-12T04:50:46;41.16;38.67;51.06;;
45109;Laerm;30447;48.742;8.972;2023-04-12T04:53:14;41.11;38.52;53.27;;
45109;Laerm;30447;48.742;8.972;2023-04-12T04:55:41;42.34;38.37;56.86;;
45109;Laerm;30447;48.742;8.972;2023-04-12T04:58:07;42.61;38.81;56.66;;
45109;Laerm;30447;48.742;8.972;2023-04-12T05:00:34;48.62;39.92;61.92;;
45109;Laerm;30447;48.742;8.972;2023-04-12T05:03:01;46.20;38.81;58.09;;
45109;Laerm;30447;48.742;8.972;2023-04-12T05:05:30;43.77;38.67;62.20;;
45109;Laerm;30447;48.742;8.972;2023-04-12T05:07:57;43.41;38.37;63.59;;
45109;Laerm;30447;48.742;8.972;2023-04-12T05:10:24;41.63;39.34;50.63;;
45109;Laerm;30447;48.742;8.972;2023-04-12T05:12:50;43.89;39.46;55.89;;
45109;Laerm;30447;48.742;8.972;2023-04-12T05:15:18;43.92;39.70;55.47;;
45109;Laerm;30447;48.742;8.972;2023-04-12T05:17:45;42.46;39.70;54.08;;
45109;Laerm;30447;48.742;8.972;2023-04-12T05:20:11;42.55;39.57;51.45;;
45109;Laerm;30447;48.742;8.972;2023-04-12T05:22:38;42.37;38.95;56.57;;
45109;Laerm;30447;48.742;8.972;2023-04-12T05:25:04;42.20;38.21;52.15;;
45109;Laerm;30447;48.742;8.972;2023-04-12T05:27:31;43.01;38.21;59.58;;
45109;Laerm;30447;48.742;8.972;2023-04-12T05:29:58;42.45;39.21;51.35;;
45109;Laerm;30447;48.742;8.972;2023-04-12T05:32:25;46.76;39.34;66.41;;
45109;Laerm;30447;48.742;8.972;2023-04-12T05:34:51;43.59;39.34;57.22;;
45109;Laerm;30447;48.742;8.972;2023-04-12T05:37:18;43.19;39.46;56.15;;
45109;Laerm;30447;48.742;8.972;2023-04-12T05:39:44;44.26;40.23;56.96;;
45109;Laerm;30447;48.742;8.972;2023-04-12T05:42:11;46.66;40.43;62.43;;
45109;Laerm;30447;48.742;8.972;2023-04-12T05:44:38;43.65;40.23;55.63;;
45109;Laerm;30447;48.742;8.972;2023-04-12T05:47:04;43.19;39.58;54.62;;
45109;Laerm;30447;48.742;8.972;2023-04-12T05:49:31;41.80;39.21;50.03;;
45109;Laerm;30447;48.742;8.972;2023-04-12T05:51:57;41.58;39.21;47.81;;
45109;Laerm;30447;48.742;8.972;2023-04-12T05:54:24;41.73;39.21;54.23;;
45109;Laerm;30447;48.742;8.972;2023-04-12T05:56:51;42.43;38.81;53.49;;
45109;Laerm;30447;48.742;8.972;2023-04-12T05:59:19;41.27;38.05;50.98;;
45109;Laerm;30447;48.742;8.972;2023-04-12T06:01:46;41.93;38.52;56.44;;
45109;Laerm;30447;48.742;8.972;2023-04-12T06:04:13;42.76;39.34;55.96;;
45109;Laerm;30447;48.742;8.972;2023-04-12T06:06:40;41.93;37.88;54.78;;
45109;Laerm;30447;48.742;8.972;2023-04-12T06:09:06;41.17;38.37;55.16;;
45109;Laerm;30447;48.742;8.972;2023-04-12T06:11:33;44.52;38.81;62.89;;
45109;Laerm;30447;48.742;8.972;2023-04-12T06:14:00;47.50;38.52;63.30;;
45109;Laerm;30447;48.742;8.972;2023-04-12T06:16:26;42.11;39.70;49.52;;
45109;Laerm;30447;48.742;8.972;2023-04-12T06:18:53;42.22;40.03;50.69;;
45109;Laerm;30447;48.742;8.972;2023-04-12T06:21:19;42.97;39.70;61.09;;
45109;Laerm;30447;48.742;8.972;2023-04-12T06:23:46;42.11;39.08;55.31;;
45109;Laerm;30447;48.742;8.972;2023-04-12T06:26:12;41.94;38.87;47.70;;
45109;Laerm;30447;48.742;8.972;2023-04-12T06:28:39;43.95;38.67;63.94;;
45109;Laerm;30447;48.742;8.972;2023-04-12T06:31:05;41.34;38.52;54.42;;
45109;Laerm;30447;48.742;8.972;2023-04-12T06:33:32;42.02;39.34;51.72;;
45109;Laerm;30447;48.742;8.972;2023-04-12T06:35:58;41.58;39.08;48.55;;
45109;Laerm;30447;48.742;8.972;2023-04-12T06:38:25;41.86;38.81;49.91;;
45109;Laerm;30447;48.742;8.972;2023-04-12T06:40:52;41.53;39.08;52.57;;
45109;Laerm;30447;48.742;8.972;2023-04-12T06:43:18;42.28;38.67;55.80;;
45109;Laerm;30447;48.742;8.972;2023-04-12T06:45:45;41.24;38.67;48.64;;
45109;Laerm;30447;48.742;8.972;2023-04-12T06:48:12;41.40;39.21;47.72;;
45109;Laerm;30447;48.742;8.972;2023-04-12T06:50:38;42.49;38.52;53.58;;
45109;Laerm;30447;48.742;8.972;2023-04-12T06:53:05;42.08;38.52;56.19;;
45109;Laerm;30447;48.742;8.972;2023-04-12T06:55:31;41.43;38.37;48.51;;
45109;Laerm;30447;48.742;8.972;2023-04-12T06:57:59;44.00;39.21;58.50;;
45109;Laerm;30447;48.742;8.972;2023-04-12T07:00:25;41.75;38.21;51.52;;
45109;Laerm;30447;48.742;8.972;2023-04-12T07:02:52;41.46;38.37;47.48;;
45109;Laerm;30447;48.742;8.972;2023-04-12T07:05:18;41.38;38.52;52.15;;
45109;Laerm;30447;48.742;8.972;2023-04-12T07:07:45;42.19;38.99;49.25;;
45109;Laerm;30447;48.742;8.972;2023-04-12T07:10:11;49.35;39.58;67.81;;
45109;Laerm;30447;48.742;8.972;2023-04-12T07:12:38;43.82;39.70;59.75;;
45109;Laerm;30447;48.742;8.972;2023-04-12T07:15:04;42.78;39.70;52.54;;
45109;Laerm;30447;48.742;8.972;2023-04-12T07:17:31;43.08;39.92;59.90;;
45109;Laerm;30447;48.742;8.972;2023-04-12T07:19:58;42.61;39.81;52.36;;
45109;Laerm;30447;48.742;8.972;2023-04-12T07:22:24;42.56;39.21;54.36;;
45109;Laerm;30447;48.742;8.972;2023-04-12T07:24:51;46.46;39.46;64.38;;
45109;Laerm;30447;48.742;8.972;2023-04-12T07:27:17;43.08;40.03;54.77;;
45109;Laerm;30447;48.742;8.972;2023-04-12T07:29:43;42.44;39.81;52.15;;
45109;Laerm;30447;48.742;8.972;2023-04-12T07:32:10;42.67;38.81;59.61;;
45109;Laerm;30447;48.742;8.972;2023-04-12T07:34:36;42.26;40.03;49.77;;
45109;Laerm;30447;48.742;8.972;2023-04-12T07:37:04;42.67;39.81;58.52;;
45109;Laerm;30447;48.742;8.972;2023-04-12T07:39:31;42.06;39.46;55.00;;
45109;Laerm;30447;48.742;8.972;2023-04-12T07:41:59;41.87;39.34;50.24;;
45109;Laerm;30447;48.742;8.972;2023-04-12T07:44:26;42.05;39.46;51.03;;
45109;Laerm;30447;48.742;8.972;2023-04-12T07:46:53;43.12;40.03;55.92;;
45109;Laerm;30447;48.742;8.972;2023-04-12T07:49:19;44.04;39.92;56.66;;
45109;Laerm;30447;48.742;8.972;2023-04-12T07:51:46;45.39;39.70;57.91;;
45109;Laerm;30447;48.742;8.972;2023-04-12T07:54:12;42.89;39.08;59.48;;
45109;Laerm;30447;48.742;8.972;2023-04-12T07:56:39;41.93;38.95;56.83;;
45109;Laerm;30447;48.742;8.972;2023-04-12T07:59:05;43.28;40.33;54.96;;
45109;Laerm;30447;48.742;8.972;2023-04-12T08:01:32;45.09;40.03;62.39;;
45109;Laerm;30447;48.742;8.972;2023-04-12T08:03:58;45.62;40.23;62.84;;
45109;Laerm;30447;48.742;8.972;2023-04-12T08:06:25;50.93;40.13;68.30;;
45109;Laerm;30447;48.742;8.972;2023-04-12T08:08:52;43.07;39.08;61.75;;
45109;Laerm;30447;48.742;8.972;2023-04-12T08:11:18;42.18;38.95;53.79;;
45109;Laerm;30447;48.742;8.972;2023-04-12T08:13:45;43.28;38.95;53.12;;
45109;Laerm;30447;48.742;8.972;2023-04-12T08:16:11;43.22;39.08;53.61;;
45109;Laerm;30447;48.742;8.972;2023-04-12T08:18:38;41.92;38.95;54.09;;
45109;Laerm;30447;48.742;8.972;2023-04-12T08:21:04;46.60;38.81;62.44;;
45109;Laerm;30447;48.742;8.972;2023-04-12T08:23:31;43.44;38.95;59.87;;
45109;Laerm;30447;48.742;8.972;2023-04-12T08:25:57;41.56;38.52;47.74;;
45109;Laerm;30447;48.742;8.972;2023-04-12T08:28:29;42.58;39.08;49.11;;
45109;Laerm;30447;48.742;8.972;2023-04-12T08:30:56;45.57;39.34;62.12;;
45109;Laerm;30447;48.742;8.972;2023-04-12T08:33:23;42.84;38.81;59.76;;
45109;Laerm;30447;48.742;8.972;2023-04-12T08:35:49;41.48;38.37;46.15;;
45109;Laerm;30447;48.742;8.972;2023-04-12T08:38:17;41.56;38.81;47.96;;
45109;Laerm;30447;48.742;8.972;2023-04-12T08:40:44;41.83;39.58;55.21;;
45109;Laerm;30447;48.742;8.972;2023-04-12T08:43:14;42.12;39.70;52.43;;
45109;Laerm;30447;48.742;8.972;2023-04-12T08:45:43;47.18;39.92;64.93;;
45109;Laerm;30447;48.742;8.972;2023-04-12T08:48:09;42.16;39.34;55.05;;
45109;Laerm;30447;48.742;8.972;2023-04-12T08:50:36;44.56;38.81;56.51;;
45109;Laerm;30447;48.742;8.972;2023-04-12T08:53:03;42.90;39.81;55.40;;
45109;Laerm;30447;48.742;8.972;2023-04-12T08:55:29;42.45;39.11;47.24;;
45109;Laerm;30447;48.742;8.972;2023-04-12T08:57:57;42.99;40.03;57.00;;
45109;Laerm;30447;48.742;8.972;2023-04-12T09:00:24;43.26;39.81;62.43;;
45109;Laerm;30447;48.742;8.972;2023-04-12T09:02:51;43.74;40.36;60.59;;
45109;Laerm;30447;48.742;8.972;2023-04-12T09:05:17;49.02;40.03;69.12;;
45109;Laerm;30447;48.742;8.972;2023-04-12T09:07:44;45.78;40.80;60.55;;
45109;Laerm;30447;48.742;8.972;2023-04-12T09:10:29;46.87;40.43;63.07;;
45109;Laerm;30447;48.742;8.972;2023-04-12T09:12:58;43.53;39.08;59.31;;
45109;Laerm;30447;48.742;8.972;2023-04-12T09:15:25;42.94;39.34;50.91;;
45109;Laerm;30447;48.742;8.972;2023-04-12T09:18:06;43.83;40.13;51.95;;
45109;Laerm;30447;48.742;8.972;2023-04-12T09:20:34;43.18;39.58;54.89;;
45109;Laerm;30447;48.742;8.972;2023-04-12T09:23:19;42.65;39.58;53.28;;
45109;Laerm;30447;48.742;8.972;2023-04-12T09:25:47;44.28;39.81;57.66;;
45109;Laerm;30447;48.742;8.972;2023-04-12T09:28:26;49.79;39.46;66.22;;
45109;Laerm;30447;48.742;8.972;2023-04-12T09:30:55;47.60;39.81;64.36;;
45109;Laerm;30447;48.742;8.972;2023-04-12T09:33:35;46.65;40.33;65.53;;
45109;Laerm;30447;48.742;8.972;2023-04-12T09:36:04;43.02;39.58;52.85;;
45109;Laerm;30447;48.742;8.972;2023-04-12T09:38:32;43.90;39.81;50.90;;
45109;Laerm;30447;48.742;8.972;2023-04-12T09:41:18;42.60;40.43;48.87;;
45109;Laerm;30447;48.742;8.972;2023-04-12T09:43:44;42.94;40.43;48.52;;
45109;Laerm;30447;48.742;8.972;2023-04-12T09:46:12;42.59;39.92;55.63;;
45109;Laerm;30447;48.742;8.972;2023-04-12T09:48:40;42.21;39.92;50.48;;
45109;Laerm;30447;48.742;8.972;2023-04-12T09:51:07;42.48;39.81;52.36;;
45109;Laerm;30447;48.742;8.972;2023-04-12T09:53:41;41.80;39.08;46.25;;
45109;Laerm;30447;48.742;8.972;2023-04-12T09:56:11;42.52;39.92;55.93;;
45109;Laerm;30447;48.742;8.972;2023-04-12T09:58:39;43.84;39.70;52.75;;
45109;Laerm;30447;48.742;8.972;2023-04-12T10:01:08;42.49;38.81;65.62;;
45109;Laerm;30447;48.742;8.972;2023-04-12T10:03:35;44.24;39.46;58.39;;
45109;Laerm;30447;48.742;8.972;2023-04-12T10:06:02;42.56;39.46;51.13;;
45109;Laerm;30447;48.742;8.972;2023-04-12T10:08:31;42.48;38.67;56.48;;
45109;Laerm;30447;48.742;8.972;2023-04-12T10:10:59;42.03;39.21;51.75;;
45109;Laerm;30447;48.742;8.972;2023-04-12T10:13:26;42.30;38.21;59.06;;
45109;Laerm;30447;48.742;8.972;2023-04-12T10:15:54;46.64;38.60;62.19;;
45109;Laerm;30447;48.742;8.972;2023-04-12T10:18:22;43.56;38.05;60.99;;
45109;Laerm;30447;48.742;8.972;2023-04-12T10:20:49;42.23;38.37;59.02;;
45109;Laerm;30447;48.742;8.972;2023-04-12T10:23:17;44.77;38.95;58.99;;
45109;Laerm;30447;48.742;8.972;2023-04-12T10:25:47;49.26;38.37;68.32;;
45109;Laerm;30447;48.742;8.972;2023-04-12T10:28:16;41.96;38.67;52.76;;
45109;Laerm;30447;48.742;8.972;2023-04-12T10:30:43;42.03;38.37;53.19;;
45109;Laerm;30447;48.742;8.972;2023-04-12T10:33:12;41.44;38.21;48.80;;
45109;Laerm;30447;48.742;8.972;2023-04-12T10:35:59;43.91;38.95;54.01;;
45109;Laerm;30447;48.742;8.972;2023-04-12T10:38:29;44.08;38.95;60.66;;
45109;Laerm;30447;48.742;8.972;2023-04-12T10:41:09;42.94;39.21;51.84;;
45109;Laerm;30447;48.742;8.972;2023-04-12T10:43:36;68.94;39.58;94.06;;
45109;Laerm;30447;48.742;8.972;2023-04-12T10:46:03;43.81;41.68;57.45;;
45109;Laerm;30447;48.742;8.972;2023-04-12T10:48:49;46.91;41.75;60.66;;
45109;Laerm;30447;48.742;8.972;2023-04-12T10:51:20;44.42;38.67;56.32;;
45109;Laerm;30447;48.742;8.972;2023-04-12T10:54:29;41.84;38.81;55.33;;
45109;Laerm;30447;48.742;8.972;2023-04-12T10:56:45;43.06;38.37;58.10;;
45109;Laerm;30447;48.742;8.972;2023-04-12T10:59:15;43.97;38.05;62.61;;
45109;Laerm;30447;48.742;8.972;2023-04-12T11:02:08;41.68;38.95;57.56;;
45109;Laerm;30447;48.742;8.972;2023-04-12T11:04:35;41.97;38.67;60.19;;
45109;Laerm;30447;48.742;8.972;2023-04-12T11:07:09;43.74;38.52;56.83;;
45109;Laerm;30447;48.742;8.972;2023-04-12T11:09:39;43.11;38.52;58.08;;
45109;Laerm;30447;48.742;8.972;2023-04-12T11:14:43;47.88;39.46;66.77;;
45109;Laerm;30447;48.742;8.972;2023-04-12T11:19:51;43.92;39.08;62.12;;
45109;Laerm;30447;48.742;8.972;2023-04-12T11:22:19;42.74;39.34;55.89;;
45109;Laerm;30447;48.742;8.972;2023-04-12T11:24:49;55.25;39.58;71.42;;
45109;Laerm;30447;48.742;8.972;2023-04-12T11:27:18;42.13;39.21;51.62;;
45109;Laerm;30447;48.742;8.972;2023-04-12T11:29:48;43.25;38.95;60.65;;
45109;Laerm;30447;48.742;8.972;2023-04-12T11:32:15;47.24;39.21;64.18;;
45109;Laerm;30447;48.742;8.972;2023-04-12T11:34:44;42.64;38.95;56.77;;
45109;Laerm;30447;48.742;8.972;2023-04-12T11:37:10;44.28;39.46;64.53;;
45109;Laerm;30447;48.742;8.972;2023-04-12T11:39:42;43.89;39.34;58.23;;
45109;Laerm;30447;48.742;8.972;2023-04-12T11:42:18;43.33;39.81;55.65;;
45109;Laerm;30447;48.742;8.972;2023-04-12T11:44:45;47.77;39.92;64.11;;
45109;Laerm;30447;48.742;8.972;2023-04-12T11:47:19;42.79;39.92;50.61;;
45109;Laerm;30447;48.742;8.972;2023-04-12T11:49:51;44.75;40.43;63.47;;
45109;Laerm;30447;48.742;8.972;2023-04-12T11:52:19;44.09;39.78;57.63;;
45109;Laerm;30447;48.742;8.972;2023-04-12T11:54:48;45.65;39.46;61.42;;
45109;Laerm;30447;48.742;8.972;2023-04-12T11:57:18;48.02;39.81;68.80;;
45109;Laerm;30447;48.742;8.972;2023-04-12T11:59:46;42.45;39.81;47.98;;
45109;Laerm;30447;48.742;8.972;2023-04-12T12:02:15;44.20;39.21;60.90;;
45109;Laerm;30447;48.742;8.972;2023-04-12T12:04:45;42.86;39.70;56.48;;
45109;Laerm;30447;48.742;8.972;2023-04-12T12:07:14;44.40;39.21;60.00;;
45109;Laerm;30447;48.742;8.972;2023-04-12T12:09:43;46.64;39.08;69.77;;
45109;Laerm;30447;48.742;8.972;2023-04-12T12:12:10;42.48;39.34;54.33;;
45109;Laerm;30447;48.742;8.972;2023-04-12T12:14:37;42.96;39.70;55.91;;
45109;Laerm;30447;48.742;8.972;2023-04-12T12:17:12;42.02;39.34;47.50;;
45109;Laerm;30447;48.742;8.972;2023-04-12T12:19:41;43.76;39.21;60.38;;
45109;Laerm;30447;48.742;8.972;2023-04-12T12:22:16;44.74;39.08;61.73;;
45109;Laerm;30447;48.742;8.972;2023-04-12T12:24:55;42.09;39.34;50.51;;
45109;Laerm;30447;48.742;8.972;2023-04-12T12:29:52;41.84;39.08;51.84;;
45109;Laerm;30447;48.742;8.972;2023-04-12T12:32:20;42.32;39.46;50.94;;
45109;Laerm;30447;48.742;8.972;2023-04-12T12:34:53;43.21;39.78;59.34;;
45109;Laerm;30447;48.742;8.972;2023-04-12T12:37:23;57.08;38.52;76.21;;
45109;Laerm;30447;48.742;8.972;2023-04-12T12:40:06;43.80;39.34;59.68;;
45109;Laerm;30447;48.742;8.972;2023-04-12T12:42:52;44.77;38.95;58.66;;
45109;Laerm;30447;48.742;8.972;2023-04-12T12:45:24;43.07;39.34;59.32;;
45109;Laerm;30447;48.742;8.972;2023-04-12T12:47:53;46.91;39.92;67.72;;
45109;Laerm;30447;48.742;8.972;2023-04-12T12:50:27;42.20;39.08;55.09;;
45109;Laerm;30447;48.742;8.972;2023-04-12T12:52:54;42.26;38.95;48.08;;
45109;Laerm;30447;48.742;8.972;2023-04-12T12:55:23;42.55;39.58;51.68;;
45109;Laerm;30447;48.742;8.972;2023-04-12T12:57:53;45.82;39.21;68.02;;
45109;Laerm;30447;48.742;8.972;2023-04-12T13:00:23;42.39;39.08;55.67;;
45109;Laerm;30447;48.742;8.972;2023-04-12T13:02:51;42.55;38.95;54.55;;
45109;Laerm;30447;48.742;8.972;2023-04-12T13:05:19;41.90;38.67;54.94;;
45109;Laerm;30447;48.742;8.972;2023-04-12T13:07:46;41.43;38.37;48.54;;
45109;Laerm;30447;48.742;8.972;2023-04-12T13:10:13;41.55;38.95;47.10;;
45109;Laerm;30447;48.742;8.972;2023-04-12T13:12:39;43.76;38.95;56.52;;
45109;Laerm;30447;48.742;8.972;2023-04-12T13:15:06;42.96;39.21;58.80;;
45109;Laerm;30447;48.742;8.972;2023-04-12T13:17:33;42.25;39.81;50.89;;
45109;Laerm;30447;48.742;8.972;2023-04-12T13:19:59;43.58;39.34;57.90;;
45109;Laerm;30447;48.742;8.972;2023-04-12T13:22:26;42.79;39.70;55.34;;
45109;Laerm;30447;48.742;8.972;2023-04-12T13:24:52;42.32;38.81;56.32;;
45109;Laerm;30447;48.742;8.972;2023-04-12T13:27:20;42.70;38.52;53.33;;
45109;Laerm;30447;48.742;8.972;2023-04-12T13:29:47;50.79;39.70;64.65;;
45109;Laerm;30447;48.742;8.972;2023-04-12T13:32:13;42.17;39.70;48.85;;
45109;Laerm;30447;48.742;8.972;2023-04-12T13:34:40;52.38;37.88;67.64;;
45109;Laerm;30447;48.742;8.972;2023-04-12T13:37:07;44.52;39.89;60.07;;
45109;Laerm;30447;48.742;8.972;2023-04-12T13:39:33;45.04;40.62;65.10;;
45109;Laerm;30447;48.742;8.972;2023-04-12T13:42:00;44.97;39.70;60.71;;
45109;Laerm;30447;48.742;8.972;2023-04-12T13:44:27;46.20;39.46;61.46;;
45109;Laerm;30447;48.742;8.972;2023-04-12T13:46:54;45.97;39.08;64.92;;
45109;Laerm;30447;48.742;8.972;2023-04-12T13:49:20;43.65;39.81;53.90;;
45109;Laerm;30447;48.742;8.972;2023-04-12T13:51:47;42.79;39.81;52.83;;
45109;Laerm;30447;48.742;8.972;2023-04-12T13:54:13;43.43;39.21;67.74;;
45109;Laerm;30447;48.742;8.972;2023-04-12T13:56:40;42.01;38.95;55.70;;
45109;Laerm;30447;48.742;8.972;2023-04-12T13:59:07;41.90;39.08;55.46;;
45109;Laerm;30447;48.742;8.972;2023-04-12T14:01:33;42.67;38.81;54.56;;
45109;Laerm;30447;48.742;8.972;2023-04-12T14:04:00;47.52;39.08;70.64;;
45109;Laerm;30447;48.742;8.972;2023-04-12T14:06:26;43.41;40.13;55.97;;
45109;Laerm;30447;48.742;8.972;2023-04-12T14:08:53;42.52;39.46;50.15;;
45109;Laerm;30447;48.742;8.972;2023-04-12T14:11:22;43.11;39.57;53.22;;